Time;durP1;ratioP1;P1;durP2;ratioP2;P2;SDS_P1;SDS_P2;PMS_P1;PMS_P2;Temp;Humidity;BMP_temperature;BMP_pressure;BME280_temperature;BME280_humidity;BME280_pressure;Samples;Min_cycle;Max_cycle;Signal;HPM_P1;HPM_P2
2024/03/15 00:00:32;;;;;;;20.88;10.82;;;;;;;7.12;100.00;99411.63;5086642;28;20020;-65
2024/03/15 00:02:58;;;;;;;14.57;10.57;;;;;;;7.08;100.00;99405.63;5086648;28;20021;-64
2024/03/15 00:05:24;;;;;;;14.68;9.85;;;;;;;7.20;100.00;99414.97;5068537;28;20028;-63
2024/03/15 00:07:50;;;;;;;22.50;12.75;;;;;;;7.26;100.00;99416.63;5086512;28;20024;-63
2024/03/15 00:10:15;;;;;;;25.08;10.75;;;;;;;7.25;100.00;99410.59;5086550;28;20012;-64
2024/03/15 00:12:41;;;;;;;18.70;12.63;;;;;;;7.28;100.00;99404.56;5086494;28;20024;-64
2024/03/15 00:15:08;;;;;;;24.23;13.75;;;;;;;7.31;100.00;99412.28;5086037;28;20387;-63
2024/03/15 00:17:34;;;;;;;22.38;13.68;;;;;;;7.29;100.00;99403.69;5086104;28;20031;-64
2024/03/15 00:20:00;;;;;;;18.08;13.00;;;;;;;7.32;100.00;99401.94;5086068;28;20020;-64
2024/03/15 00:22:25;;;;;;;22.17;13.63;;;;;;;7.35;100.00;99406.19;5068039;28;20039;-64
2024/03/15 00:24:50;;;;;;;24.80;10.43;;;;;;;7.37;100.00;99396.72;5086240;28;20464;-63
2024/03/15 00:27:16;;;;;;;18.13;12.75;;;;;;;7.39;100.00;99391.53;5086153;28;20044;-65
2024/03/15 00:29:41;;;;;;;26.33;14.40;;;;;;;7.42;100.00;99392.38;5085856;28;20024;-63
2024/03/15 00:32:07;;;;;;;19.45;12.07;;;;;;;7.40;100.00;99383.78;5068078;28;20028;-64
2024/03/15 00:34:33;;;;;;;15.80;11.80;;;;;;;7.46;100.00;99389.75;5085794;28;20046;-63
2024/03/15 00:36:59;;;;;;;18.92;13.02;;;;;;;7.45;100.00;99383.72;5085782;28;20076;-64
2024/03/15 00:39:24;;;;;;;16.38;10.75;;;;;;;7.48;100.00;99383.69;5085709;28;20059;-64
2024/03/15 00:41:49;;;;;;;15.63;11.95;;;;;;;7.53;100.00;99394.81;5085787;28;20445;-65
2024/03/15 00:44:15;;;;;;;29.20;17.48;;;;;;;7.55;100.00;99392.22;5085266;28;20017;-65
2024/03/15 00:46:40;;;;;;;23.50;14.60;;;;;;;7.57;100.00;99380.13;5085824;28;20032;-65
2024/03/15 00:49:06;;;;;;;27.75;14.30;;;;;;;7.59;100.00;99380.94;5085623;28;20052;-63
2024/03/15 00:51:31;;;;;;;22.83;15.90;;;;;;;7.61;100.00;99379.22;5085531;28;20471;-64
2024/03/15 00:53:56;;;;;;;24.63;14.68;;;;;;;7.57;100.00;99373.22;5085307;28;20084;-63
2024/03/15 00:56:22;;;;;;;29.98;15.40;;;;;;;7.57;100.00;99372.38;5067395;28;20051;-66
2024/03/15 00:58:47;;;;;;;20.38;15.48;;;;;;;7.55;100.00;99368.97;5084999;28;20105;-63
2024/03/15 01:01:12;;;;;;;21.98;15.88;;;;;;;7.53;100.00;99368.13;5085589;28;20453;-64
2024/03/15 01:03:39;;;;;;;28.67;18.20;;;;;;;7.52;100.00;99364.69;5085197;28;20287;-63
2024/03/15 01:06:04;;;;;;;22.75;15.38;;;;;;;7.54;100.00;99362.94;5085537;28;20266;-64
2024/03/15 01:08:29;;;;;;;21.60;15.40;;;;;;;7.56;100.00;99360.31;5085380;28;20021;-64
2024/03/15 01:10:55;;;;;;;25.33;15.68;;;;;;;7.57;100.00;99364.63;5085354;28;20028;-64
2024/03/15 01:13:20;;;;;;;28.90;17.88;;;;;;;7.59;100.00;99373.19;5085248;28;20028;-64
2024/03/15 01:15:46;;;;;;;22.63;17.05;;;;;;;7.58;100.00;99361.19;5085031;28;20027;-63
2024/03/15 01:18:12;;;;;;;24.55;15.60;;;;;;;7.55;100.00;99359.50;5084851;28;20074;-63
2024/03/15 01:20:38;;;;;;;23.25;15.85;;;;;;;7.52;100.00;99356.09;5085156;28;20031;-64
2024/03/15 01:23:03;;;;;;;22.23;14.95;;;;;;;7.53;100.00;99355.19;5066384;28;20020;-63
2024/03/15 01:25:35;;;;;;;25.92;15.70;;;;;;;7.50;100.00;99358.69;5084997;28;20031;-65
2024/03/15 01:28:06;;;;;;;;;;;;;;;7.51;100.00;99365.56;5085416;28;20028;-64
2024/03/15 01:30:32;;;;;;;21.17;14.43;;;;;;;7.45;100.00;99363.06;5084916;28;19915;-63
2024/03/15 01:32:58;;;;;;;23.33;14.25;;;;;;;7.42;100.00;99357.94;5085200;28;20021;-63
2024/03/15 01:35:32;;;;;;;19.70;14.18;;;;;;;7.36;100.00;99358.88;5067083;28;20465;-64
2024/03/15 01:38:00;;;;;;;19.08;13.85;;;;;;;7.37;100.00;99357.97;5084795;28;20072;-64
2024/03/15 01:40:26;;;;;;;26.58;16.60;;;;;;;7.36;100.00;99350.25;5067191;28;20082;-63
2024/03/15 01:42:52;;;;;;;22.48;11.68;;;;;;;7.34;100.00;99346.84;5067069;28;20422;-64
2024/03/15 01:45:18;;;;;;;10.48;8.25;;;;;;;7.35;100.00;99351.97;5084756;28;20031;-63
2024/03/15 01:47:43;;;;;;;19.98;15.55;;;;;;;7.30;100.00;99361.53;5084989;28;20052;-65
2024/03/15 01:50:09;;;;;;;22.08;14.20;;;;;;;7.31;100.00;99352.91;5084705;28;20043;-63
2024/03/15 01:52:35;;;;;;;19.10;11.45;;;;;;;7.28;100.00;99343.47;5085152;28;20020;-62
2024/03/15 01:55:02;;;;;;;19.30;13.88;;;;;;;7.26;100.00;99345.22;5084678;28;20107;-65
2024/03/15 01:57:28;;;;;;;15.68;12.05;;;;;;;7.23;100.00;99341.81;5084798;28;20027;-62
2024/03/15 01:59:53;;;;;;;23.40;15.02;;;;;;;7.22;100.00;99346.09;5084421;28;20025;-63
2024/03/15 02:02:19;;;;;;;28.98;14.93;;;;;;;7.19;100.00;99336.69;5084767;28;20036;-64
2024/03/15 02:04:54;;;;;;;27.38;16.17;;;;;;;7.17;100.00;99337.56;5084646;28;20033;-64
2024/03/15 02:07:30;;;;;;;34.28;15.25;;;;;;;7.19;100.00;99336.69;5084678;28;20025;-63
2024/03/15 02:09:59;;;;;;;30.77;18.08;;;;;;;7.15;100.00;99329.84;5066662;28;20418;-64
2024/03/15 02:12:27;;;;;;;30.02;17.52;;;;;;;7.15;100.00;99323.81;5084389;28;20020;-64
2024/03/15 02:14:53;;;;;;;23.38;12.77;;;;;;;7.17;100.00;99332.41;5084426;28;20074;-63
2024/03/15 02:17:20;;;;;;;24.60;17.98;;;;;;;7.15;100.00;99324.69;5084528;28;20048;-64
2024/03/15 02:19:46;;;;;;;23.05;11.63;;;;;;;7.14;100.00;99324.72;5084643;28;20040;-63
2024/03/15 02:22:11;;;;;;;21.85;12.95;;;;;;;7.16;100.00;99326.38;5084487;28;20028;-63
2024/03/15 02:24:38;;;;;;;26.33;15.20;;;;;;;7.14;100.00;99335.88;5065961;28;20025;-63
2024/03/15 02:27:05;;;;;;;22.95;15.48;;;;;;;7.19;100.00;99333.22;5066498;28;20107;-64
2024/03/15 02:29:30;;;;;;;27.50;15.90;;;;;;;7.20;100.00;99332.38;5084563;28;20024;-64
2024/03/15 02:31:56;;;;;;;18.58;14.02;;;;;;;7.22;100.00;99332.34;5084519;28;20020;-64
2024/03/15 02:34:21;;;;;;;23.10;13.73;;;;;;;7.21;100.00;99320.31;5084122;28;20034;-63
2024/03/15 02:36:47;;;;;;;30.00;14.40;;;;;;;7.21;100.00;99312.56;5088091;28;20052;-63
2024/03/15 02:39:16;;;;;;;17.08;12.82;;;;;;;7.23;100.00;99316.00;5088227;28;20028;-64
2024/03/15 02:41:46;;;;;;;27.67;13.77;;;;;;;7.22;100.00;99320.28;5088326;28;20029;-65
2024/03/15 02:44:11;;;;;;;16.88;11.77;;;;;;;7.19;100.00;99318.59;5087814;28;20035;-64
2024/03/15 02:46:37;;;;;;;20.98;13.30;;;;;;;7.23;100.00;99310.81;5088161;28;20021;-64
2024/03/15 02:49:03;;;;;;;16.10;12.27;;;;;;;7.22;100.00;99317.69;5087935;28;20024;-63
2024/03/15 02:51:29;;;;;;;24.35;15.98;;;;;;;7.24;100.00;99308.22;5088078;28;20099;-64
2024/03/15 02:53:55;;;;;;;22.90;15.50;;;;;;;7.21;100.00;99294.50;5087763;28;20024;-65
2024/03/15 02:56:20;;;;;;;27.17;15.73;;;;;;;7.24;100.00;99294.44;5087864;28;20024;-63
2024/03/15 02:58:46;;;;;;;21.67;13.27;;;;;;;7.21;100.00;99291.91;5087585;28;20377;-63
2024/03/15 03:01:12;;;;;;;26.92;16.42;;;;;;;7.19;100.00;99300.53;5069745;28;20029;-64
2024/03/15 03:03:37;;;;;;;20.38;13.82;;;;;;;7.22;100.00;99293.63;5087814;28;20028;-63
2024/03/15 03:06:06;;;;;;;17.23;12.45;;;;;;;7.14;100.00;99289.41;5087856;28;20056;-62
2024/03/15 03:08:33;;;;;;;17.65;12.45;;;;;;;7.15;100.00;99287.69;5069585;28;20021;-63
2024/03/15 03:10:59;;;;;;;24.75;13.55;;;;;;;7.17;100.00;99284.19;5087854;28;20051;-63
2024/03/15 03:13:24;;;;;;;21.05;14.38;;;;;;;7.18;100.00;99288.50;5087308;28;20376;-62
2024/03/15 03:15:50;;;;;;;19.70;10.82;;;;;;;7.21;100.00;99285.03;5087337;28;20028;-63
2024/03/15 03:18:15;;;;;;;24.73;13.52;;;;;;;7.21;100.00;99274.69;5069531;28;20089;-64
2024/03/15 03:20:40;;;;;;;17.40;11.13;;;;;;;7.27;100.00;99286.66;5069391;28;20115;-64
2024/03/15 03:23:09;;;;;;;14.60;10.52;;;;;;;7.29;100.00;99280.63;5087394;28;20036;-63
2024/03/15 03:25:34;;;;;;;25.35;11.00;;;;;;;7.31;100.00;99283.19;5087402;28;20047;-63
2024/03/15 03:28:00;;;;;;;18.27;11.48;;;;;;;7.29;100.00;99270.31;5087401;28;20460;-63
2024/03/15 03:30:26;;;;;;;18.60;10.68;;;;;;;7.31;100.00;99272.88;5087042;28;20036;-63
2024/03/15 03:32:51;;;;;;;25.92;10.43;;;;;;;7.35;100.00;99255.59;5087121;28;20027;-64
2024/03/15 03:35:17;;;;;;;21.30;8.60;;;;;;;7.40;100.00;99277.03;5087516;28;20031;-63
2024/03/15 03:37:43;;;;;;;22.23;12.18;;;;;;;7.40;100.00;99261.53;5087045;28;20080;-63
2024/03/15 03:40:14;;;;;;;17.77;11.23;;;;;;;7.36;100.00;99255.59;5087119;28;20058;-63
2024/03/15 03:42:43;;;;;;;15.18;10.95;;;;;;;7.52;100.00;99265.69;5068988;28;20028;-63
2024/03/15 03:45:15;;;;;;;19.48;9.13;;;;;;;7.58;100.00;99270.78;5068649;28;20047;-63
2024/03/15 03:47:43;;;;;;;14.90;8.85;;;;;;;7.63;100.00;99257.78;5085570;28;20016;-63
2024/03/15 03:50:10;;;;;;;9.10;7.30;;;;;;;7.66;100.00;99271.53;5086805;28;20045;-64
2024/03/15 03:52:35;;;;;;;17.38;8.85;;;;;;;7.73;100.00;99269.66;5086866;28;20021;-63
2024/03/15 03:55:05;;;;;;;16.42;9.63;;;;;;;7.74;100.00;99266.22;5086701;28;20100;-63
2024/03/15 03:57:31;;;;;;;5.53;4.70;;;;;;;7.76;100.00;99258.47;5086825;28;20104;-62
2024/03/15 03:59:56;;;;;;;10.40;7.50;;;;;;;7.80;100.00;99263.56;5086499;28;20021;-61
2024/03/15 04:02:22;;;;;;;20.27;8.18;;;;;;;7.80;100.00;99263.56;5086640;28;20052;-64
2024/03/15 04:04:47;;;;;;;15.38;8.32;;;;;;;7.75;100.00;99254.16;5086616;28;20146;-64
2024/03/15 04:07:13;;;;;;;13.25;7.47;;;;;;;7.78;100.00;99265.28;5086767;28;20054;-65
2024/03/15 04:09:38;;;;;;;14.35;8.18;;;;;;;7.71;100.00;99261.13;5086456;28;20028;-65
2024/03/15 04:12:04;;;;;;;12.38;9.10;;;;;;;7.75;100.00;99260.19;5086745;28;20160;-65
2024/03/15 04:14:30;;;;;;;9.90;7.47;;;;;;;7.81;100.00;99249.75;5068157;28;20051;-66
2024/03/15 04:16:55;;;;;;;17.38;8.00;;;;;;;7.80;100.00;99255.81;5086374;28;20024;-66
2024/03/15 04:19:24;;;;;;;22.27;11.20;;;;;;;7.83;100.00;99254.88;5086424;28;20067;-66
2024/03/15 04:21:51;;;;;;;10.60;9.00;;;;;;;7.80;100.00;99249.78;5086535;28;20486;-64
2024/03/15 04:24:17;;;;;;;12.25;7.85;;;;;;;7.84;100.00;99246.28;5068285;28;20703;-66
2024/03/15 04:26:42;;;;;;;17.27;9.82;;;;;;;7.83;100.00;99249.72;5086546;28;20074;-64
2024/03/15 04:29:07;;;;;;;13.57;9.80;;;;;;;7.78;100.00;99234.28;5068081;28;20016;-65
2024/03/15 04:31:33;;;;;;;21.42;11.63;;;;;;;7.79;100.00;99236.03;5086643;28;20028;-65
2024/03/15 04:33:58;;;;;;;13.48;9.48;;;;;;;7.85;100.00;99236.78;5085965;28;20048;-65
2024/03/15 04:36:24;;;;;;;24.05;10.27;;;;;;;7.89;100.00;99243.63;5093135;28;20051;-65
2024/03/15 04:38:50;;;;;;;17.08;10.93;;;;;;;7.88;100.00;99234.13;5088900;28;20035;-65
2024/03/15 04:41:20;;;;;;;15.43;9.55;;;;;;;7.89;100.00;99241.88;5106480;28;20032;-65
2024/03/15 04:43:46;;;;;;;13.35;7.00;;;;;;;7.87;100.00;99243.66;5088250;28;20059;-66
2024/03/15 04:46:11;;;;;;;8.93;5.20;;;;;;;7.87;100.00;99235.91;5106117;28;20113;-65
2024/03/15 04:48:37;;;;;;;21.13;14.05;;;;;;;7.73;100.00;99222.34;5106373;28;20020;-64
2024/03/15 04:51:03;;;;;;;0.60;0.60;;;;;;;7.86;100.00;99241.09;5106129;28;20048;-65
2024/03/15 04:53:28;;;;;;;0.43;0.43;;;;;;;7.78;100.00;99231.72;5106071;28;20102;-66
2024/03/15 04:55:54;;;;;;;0.68;0.65;;;;;;;7.74;100.00;99224.91;5106071;28;20053;-66
2024/03/15 04:58:21;;;;;;;0.50;0.50;;;;;;;7.59;100.00;99225.97;5105271;28;20034;-67
2024/03/15 05:00:47;;;;;;;0.90;0.90;;;;;;;7.46;100.00;99219.31;5105653;28;20020;-68
2024/03/15 05:03:12;;;;;;;0.40;0.40;;;;;;;7.42;100.00;99223.66;5106020;28;20083;-66
2024/03/15 05:05:38;;;;;;;0.50;0.50;;;;;;;7.47;100.00;99223.56;5105852;28;20024;-67
2024/03/15 05:08:05;;;;;;;0.60;0.60;;;;;;;7.28;100.00;99216.09;5105749;28;20379;-68
2024/03/15 05:10:30;;;;;;;0.60;0.60;;;;;;;7.13;100.00;99206.84;5105719;28;20016;-68
2024/03/15 05:12:56;;;;;;;3.83;1.88;;;;;;;7.13;100.00;99207.69;5105521;28;20436;-69
2024/03/15 05:15:22;;;;;;;0.32;0.32;;;;;;;7.16;100.00;99217.97;5104382;28;20365;-68
2024/03/15 05:17:47;;;;;;;0.80;0.80;;;;;;;7.10;100.00;99193.97;5105717;28;20024;-67
2024/03/15 05:20:13;;;;;;;2.58;2.42;;;;;;;7.15;100.00;99207.66;5105478;28;20530;-67
2024/03/15 05:22:39;;;;;;;1.15;1.15;;;;;;;7.11;100.00;99208.59;5105849;28;20024;-67
2024/03/15 05:25:09;;;;;;;3.33;2.80;;;;;;;7.07;100.00;99206.06;5104214;28;20496;-68
2024/03/15 05:27:34;;;;;;;0.45;0.45;;;;;;;7.17;100.00;99208.50;5105482;28;20078;-68
2024/03/15 05:30:00;;;;;;;0.60;0.60;;;;;;;7.16;100.00;99206.78;5105137;28;20359;-68
2024/03/15 05:32:26;;;;;;;2.63;2.42;;;;;;;7.20;100.00;99208.47;5087206;28;20028;-67
2024/03/15 05:34:53;;;;;;;0.60;0.60;;;;;;;7.23;100.00;99202.41;5103884;28;20054;-66
2024/03/15 05:37:18;;;;;;;1.25;1.25;;;;;;;7.26;100.00;99205.81;5105154;28;20048;-67
2024/03/15 05:39:44;;;;;;;1.30;1.30;;;;;;;7.27;100.00;99204.06;5087117;28;20031;-67
2024/03/15 05:42:09;;;;;;;0.40;0.40;;;;;;;7.31;100.00;99203.16;5105303;28;20043;-68
2024/03/15 05:44:34;;;;;;;0.82;0.82;;;;;;;7.35;100.00;99189.31;5104916;28;20024;-70
2024/03/15 05:47:00;;;;;;;0.57;0.57;;;;;;;7.29;100.00;99195.44;5105088;28;20028;-69
2024/03/15 05:49:25;;;;;;;0.40;0.40;;;;;;;7.36;100.00;99187.59;5105184;28;20024;-68
2024/03/15 05:51:50;;;;;;;0.82;0.82;;;;;;;7.31;100.00;99182.50;5105202;28;20028;-69
2024/03/15 05:54:16;;;;;;;0.50;0.50;;;;;;;7.31;100.00;99183.38;5105005;28;20032;-69
2024/03/15 05:56:41;;;;;;;0.40;0.40;;;;;;;7.32;100.00;99200.53;5105217;28;20024;-70
2024/03/15 05:59:07;;;;;;;0.30;0.30;;;;;;;7.31;100.00;99175.63;5104817;28;20375;-69
2024/03/15 06:01:32;;;;;;;1.50;1.50;;;;;;;7.30;100.00;99184.22;5086780;28;20020;-69
2024/03/15 06:03:57;;;;;;;0.40;0.40;;;;;;;7.38;100.00;99186.69;5104873;28;20028;-68
2024/03/15 06:06:24;;;;;;;0.60;0.60;;;;;;;7.38;100.00;99183.28;5105031;28;20418;-70
2024/03/15 06:08:49;;;;;;;0.40;0.40;;;;;;;7.42;100.00;99193.53;5105933;28;20016;-69
2024/03/15 06:11:15;;;;;;;0.40;0.40;;;;;;;7.41;100.00;99168.56;5109172;28;20416;-68
2024/03/15 06:13:41;;;;;;;0.30;0.30;;;;;;;7.43;100.00;99177.16;5090958;28;20028;-68
2024/03/15 06:16:10;;;;;;;0.40;0.40;;;;;;;7.51;100.00;99177.03;5108936;28;20026;-67
2024/03/15 06:18:36;;;;;;;0.38;0.38;;;;;;;7.59;100.00;99181.22;5108967;28;20028;-68
2024/03/15 06:21:01;;;;;;;0.32;0.32;;;;;;;7.59;100.00;99179.47;5109350;28;20024;-69
2024/03/15 06:23:27;;;;;;;0.40;0.40;;;;;;;7.60;100.00;99180.34;5109206;28;20031;-67
2024/03/15 06:25:53;;;;;;;0.30;0.30;;;;;;;7.60;100.00;99183.78;5090927;28;20118;-68
2024/03/15 06:28:19;;;;;;;0.40;0.40;;;;;;;7.62;100.00;99179.44;5108730;28;20102;-66
2024/03/15 06:30:53;;;;;;;0.40;0.40;;;;;;;7.63;100.00;99169.97;5108560;28;20028;-68
2024/03/15 06:33:18;;;;;;;0.40;0.40;;;;;;;7.68;100.00;99174.16;5109009;28;20020;-66
2024/03/15 06:35:51;;;;;;;0.40;0.40;;;;;;;7.70;100.00;99171.56;5108720;28;20020;-67
2024/03/15 06:38:40;;;;;;;2.30;2.05;;;;;;;7.71;100.00;99164.66;5108737;28;20080;-68
2024/03/15 06:41:13;;;;;;;0.50;0.50;;;;;;;7.71;100.00;99155.19;5090780;28;20091;-71
2024/03/15 06:43:47;;;;;;;0.73;0.73;;;;;;;7.69;100.00;99164.69;5108775;28;20031;-73
2024/03/15 06:46:20;;;;;;;0.32;0.32;;;;;;;7.68;100.00;99148.31;5108638;28;20024;-72
2024/03/15 06:48:56;;;;;;;0.30;0.30;;;;;;;7.67;100.00;99151.78;5107404;28;20023;-74
2024/03/15 06:54:08;;;;;;;26.35;12.43;;;;;;;7.80;100.00;99149.00;5108658;28;20030;-73
2024/03/15 06:56:34;;;;;;;34.20;13.20;;;;;;;7.77;100.00;99160.25;5108483;28;20102;-74
2024/03/15 06:59:00;;;;;;;18.95;9.38;;;;;;;7.81;100.00;99151.56;5089909;28;20116;-75
2024/03/15 07:01:27;;;;;;;29.45;15.18;;;;;;;7.83;100.00;99150.69;5108290;28;20027;-74
2024/03/15 07:03:53;;;;;;;29.52;13.02;;;;;;;7.88;100.00;99152.31;5090280;28;20024;-75
2024/03/15 07:06:20;;;;;;;33.63;17.38;;;;;;;7.90;100.00;99147.97;5108420;28;20024;-72
2024/03/15 07:08:51;;;;;;;20.17;12.30;;;;;;;7.88;100.00;99148.88;5090009;28;20028;-74
2024/03/15 07:11:16;;;;;;;16.80;8.65;;;;;;;7.94;100.00;99149.63;5107805;28;20107;-75
2024/03/15 07:13:42;;;;;;;13.63;7.65;;;;;;;7.94;100.00;99141.00;5107522;28;20032;-74
2024/03/15 07:16:07;;;;;;;23.55;14.80;;;;;;;7.86;100.00;99145.47;5107282;28;20040;-75
2024/03/15 07:18:33;;;;;;;22.15;13.43;;;;;;;7.87;100.00;99152.34;5089871;28;20032;-75
2024/03/15 07:20:58;;;;;;;33.33;16.48;;;;;;;7.86;100.00;99156.66;5107284;28;20115;-76
2024/03/15 07:23:25;;;;;;;24.23;13.75;;;;;;;7.92;100.00;99155.69;5112454;22;20048;-67
2024/03/15 07:25:51;;;;;;;14.65;10.35;;;;;;;7.99;100.00;99146.94;5091784;23;20039;-66
2024/03/15 07:28:19;;;;;;;18.98;10.25;;;;;;;7.93;100.00;99150.50;5087575;28;20052;-67
2024/03/15 07:30:46;;;;;;;11.90;9.07;;;;;;;7.96;100.00;99153.91;5086830;28;20115;-67
2024/03/15 07:33:12;;;;;;;22.08;13.80;;;;;;;7.88;100.00;99149.72;5069066;28;20055;-67
2024/03/15 07:35:37;;;;;;;22.98;14.15;;;;;;;7.87;100.00;99152.34;5068213;28;20316;-66
2024/03/15 07:38:04;;;;;;;29.83;14.27;;;;;;;7.92;100.00;99153.94;5083288;28;20191;-66
2024/03/15 07:40:30;;;;;;;14.45;9.65;;;;;;;7.86;100.00;99156.66;5065021;28;20460;-65
2024/03/15 07:42:56;;;;;;;7.03;5.60;;;;;;;7.87;100.00;99142.00;5082775;28;20036;-68
2024/03/15 07:45:22;;;;;;;19.85;9.98;;;;;;;7.97;100.00;99158.19;5082785;28;20027;-68
2024/03/15 07:47:49;;;;;;;23.23;12.82;;;;;;;7.87;100.00;99139.41;5064771;28;20477;-66
2024/03/15 07:50:15;;;;;;;25.58;14.55;;;;;;;7.77;100.00;99130.97;5092945;22;20112;-66
2024/03/15 07:52:40;;;;;;;22.83;12.82;;;;;;;7.86;100.00;99125.63;5090614;23;20063;-66
2024/03/15 07:55:06;;;;;;;10.60;6.47;;;;;;;7.89;100.00;99129.91;5118657;23;20074;-66
2024/03/15 07:57:31;;;;;;;25.77;14.20;;;;;;;7.80;100.00;99125.75;5091569;22;20115;-67
2024/03/15 07:59:58;;;;;;;0.50;0.50;;;;;;;7.91;100.00;99123.81;5086658;28;20024;-67
2024/03/15 08:02:24;;;;;;;1.10;1.10;;;;;;;7.82;100.00;99129.16;5086248;28;20028;-67
2024/03/15 08:04:50;;;;;;;2.08;1.55;;;;;;;7.80;100.00;99129.19;5084924;28;20036;-66
2024/03/15 08:07:16;;;;;;;0.68;0.68;;;;;;;7.74;100.00;99141.34;5051956;28;20110;-66
2024/03/15 08:09:44;;;;;;;0.30;0.30;;;;;;;7.75;100.00;99135.31;5086906;28;20035;-66
2024/03/15 08:12:11;;;;;;;1.17;1.17;;;;;;;7.73;100.00;99130.16;5086943;28;20024;-65
2024/03/15 08:14:37;;;;;;;0.40;0.40;;;;;;;7.76;100.00;99137.03;5086374;28;20085;-64
2024/03/15 08:17:04;;;;;;;3.40;1.25;;;;;;;7.71;100.00;99128.50;5086843;28;20444;-65
2024/03/15 08:19:30;;;;;;;0.40;0.40;;;;;;;7.76;100.00;99109.47;5068688;28;20025;-65
2024/03/15 08:21:56;;;;;;;0.40;0.40;;;;;;;7.80;100.00;99110.25;5086617;28;20082;-65
2024/03/15 08:24:21;;;;;;;0.43;0.43;;;;;;;7.68;100.00;99122.50;5086253;28;20036;-65
2024/03/15 08:26:47;;;;;;;0.40;0.40;;;;;;;7.69;100.00;99107.84;5086471;28;20051;-65
2024/03/15 08:29:13;;;;;;;1.88;1.77;;;;;;;7.63;100.00;99118.31;5086491;28;20020;-65
2024/03/15 08:31:39;;;;;;;2.85;2.65;;;;;;;7.63;100.00;99115.72;5085988;28;20032;-66
2024/03/15 08:34:06;;;;;;;5.53;4.40;;;;;;;7.60;100.00;99110.59;5085564;28;20179;-65
2024/03/15 08:36:36;;;;;;;3.63;2.78;;;;;;;7.68;100.00;99104.41;5085850;28;20515;-65
2024/03/15 08:39:10;;;;;;;0.90;0.90;;;;;;;7.66;100.00;99120.81;5086372;28;20028;-65
2024/03/15 08:41:36;;;;;;;0.40;0.40;;;;;;;7.62;100.00;99114.03;5086409;28;20127;-65
2024/03/15 08:44:03;;;;;;;0.40;0.40;;;;;;;7.65;100.00;99106.22;5086157;28;20020;-65
2024/03/15 08:46:29;;;;;;;0.40;0.40;;;;;;;7.72;100.00;99101.78;5086451;28;20025;-65
2024/03/15 08:48:54;;;;;;;0.77;0.73;;;;;;;7.74;100.00;99097.44;5086047;28;20107;-65
2024/03/15 08:51:22;;;;;;;0.40;0.40;;;;;;;7.77;100.00;99111.16;5086049;28;20027;-65
2024/03/15 08:53:48;;;;;;;0.40;0.40;;;;;;;7.79;100.00;99108.56;5068439;28;20464;-65
2024/03/15 08:56:13;;;;;;;0.30;0.30;;;;;;;7.80;100.00;99110.25;5100525;23;20072;-66
2024/03/15 08:58:39;;;;;;;0.40;0.40;;;;;;;7.76;100.00;99103.44;5106530;28;20032;-66
2024/03/15 09:01:04;;;;;;;0.40;0.40;;;;;;;7.81;100.00;99106.81;5106139;28;20028;-65
2024/03/15 09:03:33;;;;;;;0.30;0.30;;;;;;;7.79;100.00;99106.81;5106101;28;20027;-65
2024/03/15 09:06:00;;;;;;;0.30;0.30;;;;;;;7.76;100.00;99108.59;5087743;28;20096;-66
2024/03/15 09:08:26;;;;;;;0.40;0.40;;;;;;;7.86;100.00;99115.31;5119880;22;20081;-66
2024/03/15 09:10:57;;;;;;;0.95;0.95;;;;;;;7.90;100.00;99119.56;5115056;22;20052;-66
2024/03/15 09:13:22;;;;;;;0.40;0.40;;;;;;;7.93;100.00;99119.50;5101646;22;20068;-65
2024/03/15 09:15:48;;;;;;;0.40;0.40;;;;;;;7.92;100.00;99115.19;5085662;28;20027;-66
2024/03/15 09:18:13;;;;;;;0.40;0.40;;;;;;;7.91;100.00;99131.56;5085698;28;20098;-65
2024/03/15 09:20:42;;;;;;;0.40;0.40;;;;;;;7.94;100.00;99117.75;5067348;28;20040;-66
2024/03/15 09:23:09;;;;;;;0.40;0.40;;;;;;;7.89;100.00;99115.25;5085616;28;20029;-67
2024/03/15 09:25:34;;;;;;;0.30;0.30;;;;;;;7.94;100.00;99118.59;5067509;28;20016;-65
2024/03/15 09:28:00;;;;;;;0.40;0.40;;;;;;;7.94;100.00;99126.34;5105300;23;20620;-66
2024/03/15 09:30:27;;;;;;;0.30;0.30;;;;;;;7.96;100.00;99125.47;5087345;28;20028;-65
2024/03/15 09:32:53;;;;;;;0.40;0.40;;;;;;;7.99;100.00;99122.81;5087664;28;20092;-70
2024/03/15 09:35:19;;;;;;;0.40;0.40;;;;;;;8.02;100.00;99120.22;5105713;28;20024;-71
2024/03/15 09:37:51;;;;;;;0.40;0.40;;;;;;;8.05;100.00;99130.50;5087819;28;20024;-71
2024/03/15 09:40:21;;;;;;;;;;;;;;;8.11;100.00;99129.50;5105931;28;20024;-71
2024/03/15 09:42:48;;;;;;;0.30;0.30;;;;;;;8.10;100.00;99130.41;5105867;28;19927;-71
2024/03/15 09:45:18;;;;;;;0.30;0.30;;;;;;;8.13;100.00;99125.16;5101136;23;20074;-65
2024/03/15 09:47:49;;;;;;;0.30;0.30;;;;;;;8.19;100.00;99122.47;5105698;28;20028;-66
2024/03/15 09:50:21;;;;;;;0.35;0.35;;;;;;;8.27;100.00;99130.06;5105550;28;20035;-68
2024/03/15 09:52:47;;;;;;;0.30;0.30;;;;;;;8.33;100.00;99123.91;5105588;28;20024;-66
2024/03/15 09:55:16;;;;;;;0.32;0.32;;;;;;;8.38;100.00;99128.13;5105336;28;20030;-67
2024/03/15 09:57:46;;;;;;;0.30;0.30;;;;;;;8.45;100.00;99122.84;5105331;28;20039;-66
2024/03/15 10:00:21;;;;;;;0.30;0.30;;;;;;;8.49;100.00;99103.75;5091981;22;20056;-67
2024/03/15 10:02:48;;;;;;;0.40;0.40;;;;;;;8.50;100.00;99127.00;5084982;28;20029;-67
2024/03/15 10:05:14;;;;;;;0.40;0.40;;;;;;;8.54;100.00;99122.63;5067127;28;20025;-74
2024/03/15 10:07:40;;;;;;;0.35;0.35;;;;;;;8.60;100.00;99127.72;5085244;28;20029;-73
2024/03/15 10:10:14;;;;;;;0.40;0.40;;;;;;;8.66;100.00;99134.47;5085244;28;20020;-72
2024/03/15 10:12:49;;;;;;;0.40;0.40;;;;;;;8.72;100.00;99125.75;5066992;28;20078;-74
2024/03/15 10:15:19;;;;;;;0.30;0.30;;;;;;;8.72;100.00;99118.00;5089277;22;20021;-67
2024/03/15 10:17:53;;;;;;;0.30;0.30;;;;;;;8.72;100.00;99125.75;5105557;23;20126;-65
2024/03/15 10:20:20;;;;;;;0.40;0.40;;;;;;;8.80;100.00;99116.09;5105238;28;20039;-65
2024/03/15 10:22:46;;;;;;;0.30;0.30;;;;;;;8.80;100.00;99109.16;5105186;28;20020;-66
2024/03/15 10:25:17;;;;;;;0.30;0.30;;;;;;;8.93;100.00;99116.66;5103645;28;20016;-66
2024/03/15 10:27:45;;;;;;;0.30;0.30;;;;;;;8.97;100.00;99102.78;5086940;28;20024;-65
2024/03/15 10:30:15;;;;;;;0.30;0.30;;;;;;;9.06;100.00;99114.63;5104028;28;20111;-66
2024/03/15 10:32:41;;;;;;;0.32;0.32;;;;;;;9.16;100.00;99105.78;5104496;28;20031;-66
2024/03/15 10:35:19;;;;;;;0.30;0.30;;;;;;;9.26;100.00;99106.41;5104933;28;20031;-65
2024/03/15 10:37:45;;;;;;;0.30;0.30;;;;;;;9.32;100.00;99109.72;5105268;28;20170;-65
2024/03/15 10:40:15;;;;;;;0.30;0.30;;;;;;;9.38;100.00;99110.44;5114039;22;20056;-66
2024/03/15 10:43:00;;;;;;;0.30;0.30;;;;;;;9.46;100.00;99124.94;5125257;28;20095;-67
2024/03/15 10:45:26;;;;;;;0.30;0.30;;;;;;;9.44;100.00;99111.19;5125346;28;20425;-68
2024/03/15 10:47:53;;;;;;;0.30;0.30;;;;;;;9.49;100.00;99119.69;5125246;28;20015;-69
2024/03/15 10:50:21;;;;;;;0.30;0.30;;;;;;;9.48;100.00;99116.25;5125261;28;20031;-67
2024/03/15 10:52:48;;;;;;;0.30;0.30;;;;;;;9.48;100.00;99110.22;5125291;28;20030;-67
2024/03/15 10:55:24;;;;;;;0.30;0.30;;;;;;;9.46;100.00;99123.19;5125213;28;20020;-66
2024/03/15 10:57:50;;;;;;;0.30;0.30;;;;;;;9.40;100.00;99115.59;5129077;28;20043;-66
2024/03/15 11:00:18;;;;;;;0.30;0.30;;;;;;;9.37;100.00;99111.34;5128417;28;20027;-67
2024/03/15 11:02:44;;;;;;;0.30;0.30;;;;;;;9.44;100.00;99098.22;5128977;28;20037;-69
2024/03/15 11:05:21;;;;;;;0.30;0.30;;;;;;;9.47;100.00;99105.94;5128791;28;20028;-68
2024/03/15 11:07:48;;;;;;;0.30;0.30;;;;;;;9.56;100.00;99100.50;5128892;28;20034;-69
2024/03/15 11:10:15;;;;;;;0.77;0.77;;;;;;;9.66;100.00;99091.59;5128945;28;20019;-69
2024/03/15 11:12:40;;;;;;;0.30;0.30;;;;;;;9.76;100.00;99104.34;5128796;28;20023;-70
2024/03/15 11:15:18;;;;;;;0.30;0.30;;;;;;;9.88;100.00;99096.22;5128360;28;20077;-72
2024/03/15 11:17:43;;;;;;;1.17;1.17;;;;;;;10.02;100.00;99084.63;5128710;28;20082;-72
2024/03/15 11:20:15;;;;;;;0.30;0.30;;;;;;;9.96;100.00;99095.16;5128555;28;20024;-72
2024/03/15 11:22:40;;;;;;;2.22;2.08;;;;;;;10.05;100.00;99092.31;5128661;28;20035;-71
2024/03/15 11:25:16;;;;;;;0.50;0.50;;;;;;;9.98;100.00;99088.22;5110072;28;20027;-73
2024/03/15 11:27:58;;;;;;;0.50;0.50;;;;;;;9.99;100.00;99090.75;5127210;28;20027;-72